Time;durP1;ratioP1;P1;durP2;ratioP2;P2;SDS_P1;SDS_P2;PMS_P1;PMS_P2;Temp;Humidity;BMP_temperature;BMP_pressure;BME280_temperature;BME280_humidity;BME280_pressure;Samples;Min_cycle;Max_cycle;Signal;HPM_P1;HPM_P2
2022/01/05 00:00:32;;;;;;;62.97;30.47;;;;;;;4.09;97.81;98697.34;4939859;29;20279;-86
2022/01/05 00:02:57;;;;;;;65.27;30.53;;;;;;;1.49;98.03;98257.13;4939535;28;20184;-85
2022/01/05 00:05:24;;;;;;;54.83;25.23;;;;;;;4.23;97.99;98739.88;4957023;29;20215;-86
2022/01/05 00:07:50;;;;;;;62.03;27.50;;;;;;;1.35;98.37;98272.03;4940242;29;20198;-86
2022/01/05 00:10:16;;;;;;;57.77;26.23;;;;;;;4.32;98.82;98821.41;4940895;29;20925;-86
2022/01/05 00:12:41;;;;;;;54.60;26.63;;;;;;;3.97;99.80;98726.69;4956616;29;20177;-86
2022/01/05 00:15:09;;;;;;;101.13;44.03;;;;;;;2.19;98.95;98456.84;4942804;29;20445;-86
2022/01/05 00:17:34;;;;;;;57.97;28.97;;;;;;;1.53;100.00;98353.81;4941184;29;20215;-86
2022/01/05 00:20:01;;;;;;;58.47;28.17;;;;;;;3.48;100.00;98657.91;4941111;29;20413;-86
2022/01/05 00:22:26;;;;;;;64.90;32.37;;;;;;;1.25;100.00;98273.13;4943021;29;20626;-86
2022/01/05 00:24:51;;;;;;;66.20;32.43;;;;;;;1.03;100.00;98257.59;4941285;29;20420;-85
2022/01/05 00:27:17;;;;;;;68.00;35.37;;;;;;;2.57;99.59;98504.09;4956204;29;20601;-85
2022/01/05 00:29:43;;;;;;;61.90;30.57;;;;;;;4.31;100.00;98812.19;4955623;29;20188;-84
2022/01/05 00:32:10;;;;;;;52.37;27.60;;;;;;;3.30;100.00;98645.94;4939869;29;20196;-86
2022/01/05 00:34:36;;;;;;;50.10;25.70;;;;;;;4.54;100.00;98808.47;4940085;29;20263;-85
2022/01/05 00:37:02;;;;;;;53.37;26.90;;;;;;;4.36;99.73;98807.44;4940625;29;20447;-87
2022/01/05 00:39:28;;;;;;;50.40;25.10;;;;;;;2.65;99.03;98525.41;4958060;29;21010;-86
2022/01/05 00:41:54;;;;;;;49.07;25.17;;;;;;;3.59;98.90;98671.03;4939071;29;20260;-84
2022/01/05 00:44:20;;;;;;;53.43;25.03;;;;;;;3.89;99.48;98747.06;4956732;29;20239;-85
2022/01/05 00:46:47;;;;;;;54.73;24.90;;;;;;;4.21;100.00;98817.41;4960941;29;20965;-86
2022/01/05 00:49:34;;;;;;;52.37;25.17;;;;;;;2.31;100.00;98511.63;4943845;29;20223;-86
2022/01/05 00:52:01;;;;;;;55.67;29.93;;;;;;;1.24;100.00;98318.72;4898318;29;20431;-85
2022/01/05 00:54:26;;;;;;;54.13;26.10;;;;;;;3.12;100.00;98639.84;4897504;29;20430;-85
2022/01/05 00:56:52;;;;;;;52.30;26.60;;;;;;;2.19;99.27;98453.50;4882117;29;20457;-86
2022/01/05 00:59:19;;;;;;;46.67;24.20;;;;;;;2.73;98.80;98540.84;4896833;29;20202;-85
2022/01/05 01:01:44;;;;;;;45.20;22.67;;;;;;;3.60;99.39;98696.94;4896563;29;20246;-85
2022/01/05 01:04:09;;;;;;;46.43;24.33;;;;;;;4.32;98.55;98805.50;4897974;29;20422;-86
2022/01/05 01:06:35;;;;;;;49.37;25.03;;;;;;;4.29;98.79;98807.84;4897639;29;20187;-85
2022/01/05 01:09:00;;;;;;;47.73;24.50;;;;;;;3.71;99.77;98736.81;4897216;29;20195;-86
2022/01/05 01:11:26;;;;;;;49.80;25.10;;;;;;;4.12;100.00;98807.72;4899992;29;20640;-87
2022/01/05 01:13:51;;;;;;;46.57;24.23;;;;;;;1.89;99.43;98390.13;4896437;29;20191;-87
2022/01/05 01:16:19;;;;;;;48.00;23.77;;;;;;;1.55;98.73;98337.31;4899094;29;20191;-84
2022/01/05 01:18:45;;;;;;;45.63;23.73;;;;;;;3.69;98.77;98682.44;4901025;29;20221;-85
2022/01/05 01:21:10;;;;;;;50.93;23.50;;;;;;;2.42;99.20;98479.84;4900045;29;20437;-85
2022/01/05 01:23:37;;;;;;;48.43;24.43;;;;;;;4.30;99.81;98802.94;4900435;29;20199;-85
2022/01/05 01:26:02;;;;;;;61.83;28.80;;;;;;;2.35;99.62;98456.13;4899637;29;20177;-85
2022/01/05 01:28:30;;;;;;;100.47;47.67;;;;;;;3.06;98.71;98567.84;4899073;29;20408;-86
2022/01/05 01:30:55;;;;;;;72.07;35.57;;;;;;;3.66;98.31;98688.13;4941883;29;20263;-86
2022/01/05 01:33:21;;;;;;;59.00;29.73;;;;;;;0.75;97.42;98199.38;4959810;29;20447;-85
2022/01/05 01:35:48;;;;;;;50.60;26.47;;;;;;;1.15;97.60;98283.28;4941576;29;20203;-85
2022/01/05 01:38:14;;;;;;;45.27;24.37;;;;;;;4.01;97.35;98777.84;4958265;29;20280;-86
2022/01/05 01:40:39;;;;;;;47.50;24.13;;;;;;;3.79;98.13;98778.19;4957621;29;20480;-85
2022/01/05 01:43:05;;;;;;;50.80;24.40;;;;;;;1.78;98.11;98466.81;4957960;29;20185;-85
2022/01/05 01:45:30;;;;;;;45.57;23.73;;;;;;;3.00;99.87;98694.97;4957592;29;20192;-85
2022/01/05 01:47:56;;;;;;;51.60;25.63;;;;;;;0.53;100.00;98281.81;4964207;29;20196;-86
2022/01/05 01:50:21;;;;;;;48.93;25.73;;;;;;;0.84;100.00;98315.38;4945753;29;20174;-85
2022/01/05 01:52:47;;;;;;;57.67;30.00;;;;;;;2.70;100.00;98613.13;4939304;29;20194;-85
2022/01/05 01:55:14;;;;;;;55.03;29.23;;;;;;;3.63;100.00;98770.53;4938664;29;20210;-85
2022/01/05 01:57:43;;;;;;;53.30;28.27;;;;;;;3.75;100.00;98773.78;4922172;29;20225;-85
2022/01/05 02:00:10;;;;;;;54.20;27.97;;;;;;;1.09;100.00;98326.13;4939355;29;20429;-85
2022/01/05 02:02:37;;;;;;;56.83;28.67;;;;;;;3.72;100.00;98763.59;4921505;29;20819;-85
2022/01/05 02:05:04;;;;;;;54.03;28.33;;;;;;;2.69;100.00;98572.25;4921649;29;20966;-85
2022/01/05 02:07:30;;;;;;;48.80;26.20;;;;;;;1.54;100.00;98375.47;4941716;29;20488;-84
2022/01/05 02:10:03;;;;;;;52.37;25.53;;;;;;;3.73;100.00;98767.81;4939049;29;20421;-85
2022/01/05 02:12:29;;;;;;;48.27;25.33;;;;;;;0.99;99.41;98291.44;4916131;29;20421;-83
2022/01/05 02:14:55;;;;;;;51.83;26.17;;;;;;;3.42;99.91;98739.22;4965304;29;20412;-86
2022/01/05 02:17:24;;;;;;;49.87;26.23;;;;;;;1.90;99.54;98453.31;4941808;29;20192;-86
2022/01/05 02:19:50;;;;;;;49.27;24.33;;;;;;;3.35;99.87;98719.63;4956785;29;20650;-85
2022/01/05 02:22:15;;;;;;;45.87;23.37;;;;;;;1.02;99.58;98306.56;4958158;29;20424;-85
2022/01/05 02:24:47;;;;;;;47.77;24.03;;;;;;;1.13;99.78;98327.16;4943960;29;20192;-85
2022/01/05 02:27:15;;;;;;;53.20;26.73;;;;;;;2.42;99.78;98545.63;4955340;28;20325;-85
2022/01/05 02:29:41;;;;;;;51.87;27.17;;;;;;;3.51;100.00;98752.28;4957409;29;20934;-85
2022/01/05 02:32:07;;;;;;;53.63;26.93;;;;;;;3.09;100.00;98687.16;4956946;29;20436;-85
2022/01/05 02:34:33;;;;;;;54.37;27.17;;;;;;;0.57;100.00;98264.72;4957175;29;20653;-85
2022/01/05 02:36:58;;;;;;;50.03;26.07;;;;;;;3.50;100.00;98756.44;4957115;29;20212;-85
2022/01/05 02:39:25;;;;;;;43.20;23.57;;;;;;;3.22;100.00;98718.00;4958091;29;20268;-85
2022/01/05 02:41:52;;;;;;;45.77;23.40;;;;;;;3.33;100.00;98759.53;4940421;29;20235;-85
2022/01/05 02:44:19;;;;;;;47.40;23.27;;;;;;;1.06;100.00;98363.31;4956955;29;20433;-85
2022/01/05 02:46:45;;;;;;;48.27;23.67;;;;;;;2.00;100.00;98530.50;4957922;29;20416;-85
2022/01/05 02:49:10;;;;;;;48.47;25.30;;;;;;;2.65;100.00;98660.31;4955300;29;20786;-85
2022/01/05 02:51:36;;;;;;;49.83;25.53;;;;;;;0.13;100.00;98238.59;4956507;29;20198;-85
2022/01/05 02:54:02;;;;;;;52.30;23.97;;;;;;;3.36;100.00;98758.84;4956608;29;20208;-85
2022/01/05 02:56:28;;;;;;;48.80;23.73;;;;;;;0.28;100.00;98254.50;4916563;29;20288;-85
2022/01/05 02:58:53;;;;;;;44.33;22.47;;;;;;;3.24;100.00;98750.63;4916952;29;20302;-85
2022/01/05 03:01:19;;;;;;;50.17;25.87;;;;;;;0.44;100.00;98298.69;4900607;29;20251;-86
2022/01/05 03:03:44;;;;;;;47.10;24.23;;;;;;;1.80;100.00;98489.34;4919351;29;20210;-85
2022/01/05 03:06:10;;;;;;;55.17;27.80;;;;;;;0.66;100.00;98314.19;4900885;29;20252;-85
2022/01/05 03:08:37;;;;;;;50.17;26.13;;;;;;;-0.10;100.00;98206.38;4916198;29;20194;-86
2022/01/05 03:11:04;;;;;;;40.70;21.73;;;;;;;-0.23;100.00;98203.88;4918878;29;20202;-85
2022/01/05 03:13:31;;;;;;;43.70;22.60;;;;;;;0.78;100.00;98366.44;4917982;29;20442;-85
2022/01/05 03:15:57;;;;;;;44.07;22.77;;;;;;;0.96;100.00;98375.09;4900733;29;20426;-85
2022/01/05 03:18:22;;;;;;;43.90;23.83;;;;;;;3.09;100.00;98733.03;4900466;29;20458;-85
2022/01/05 03:20:48;;;;;;;44.77;23.20;;;;;;;1.00;100.00;98377.00;4915667;29;20174;-85
2022/01/05 03:23:14;;;;;;;43.73;22.83;;;;;;;0.43;100.00;98275.41;4915881;29;20635;-85
2022/01/05 03:25:40;;;;;;;49.37;23.87;;;;;;;3.24;100.00;98731.44;4916145;29;20477;-85
2022/01/05 03:28:06;;;;;;;57.87;28.00;;;;;;;3.26;100.00;98729.94;4930184;29;20199;-85
2022/01/05 03:30:33;;;;;;;83.07;37.03;;;;;;;1.85;100.00;98487.97;4956105;29;20556;-84
2022/01/05 03:35:25;;;;;;;135.83;53.57;;;;;;;1.31;100.00;98390.66;4955998;29;20436;-85
2022/01/05 03:37:51;;;;;;;97.17;42.40;;;;;;;0.39;100.00;98277.59;4955565;28;20260;-85
2022/01/05 03:40:17;;;;;;;97.93;43.43;;;;;;;2.22;100.00;98600.97;4938439;29;20471;-85
2022/01/05 03:42:43;;;;;;;88.47;36.83;;;;;;;-0.41;100.00;98151.31;4939443;29;20260;-85
2022/01/05 03:45:08;;;;;;;62.37;28.57;;;;;;;0.72;100.00;98336.13;4972726;29;20427;-85
2022/01/05 03:47:34;;;;;;;59.47;29.70;;;;;;;2.50;100.00;98636.03;4959156;29;20195;-85
2022/01/05 03:50:01;;;;;;;52.17;25.90;;;;;;;2.39;100.00;98620.34;4959394;29;20188;-85
2022/01/05 03:52:26;;;;;;;47.53;24.33;;;;;;;3.03;100.00;98714.28;4963163;29;20220;-85
2022/01/05 03:54:51;;;;;;;48.33;25.67;;;;;;;0.70;100.00;98330.22;4963022;29;20464;-85
2022/01/05 03:57:17;;;;;;;45.80;21.97;;;;;;;1.90;100.00;98560.63;4957599;29;20268;-86
2022/01/05 03:59:42;;;;;;;44.70;21.13;;;;;;;2.86;100.00;98711.59;4941394;29;20188;-85
2022/01/05 04:02:08;;;;;;;44.53;21.70;;;;;;;-0.03;100.00;98261.59;4955359;29;20195;-85
2022/01/05 04:04:34;;;;;;;39.93;20.23;;;;;;;1.37;100.00;98469.94;4955566;29;20184;-85
2022/01/05 04:06:59;;;;;;;42.97;21.40;;;;;;;2.81;100.00;98739.56;4954866;29;20192;-85
2022/01/05 04:09:24;;;;;;;44.03;22.10;;;;;;;0.67;100.00;98339.97;4955859;29;20176;-85
2022/01/05 04:11:51;;;;;;;40.83;20.50;;;;;;;2.37;100.00;98656.84;4954654;29;20180;-86
2022/01/05 04:14:17;;;;;;;41.57;21.83;;;;;;;-1.43;100.00;97991.34;4956235;29;20255;-86
2022/01/05 04:16:42;;;;;;;44.77;21.07;;;;;;;2.10;100.00;98597.69;4955729;29;20915;-85
2022/01/05 04:19:07;;;;;;;41.10;20.37;;;;;;;1.39;100.00;98503.31;4955285;29;20212;-86
2022/01/05 04:21:33;;;;;;;36.87;19.50;;;;;;;2.63;100.00;98706.81;4955863;29;20189;-85
2022/01/05 04:23:58;;;;;;;37.23;18.90;;;;;;;0.39;100.00;98348.13;4956254;29;20224;-85
2022/01/05 04:26:24;;;;;;;38.63;19.03;;;;;;;0.04;100.00;98272.81;4941422;29;20188;-85
2022/01/05 04:28:50;;;;;;;54.83;26.37;;;;;;;1.87;100.00;98598.72;4955798;29;20188;-85
2022/01/05 04:31:16;;;;;;;43.90;23.07;;;;;;;-0.20;100.00;98256.28;4954538;29;20188;-85
2022/01/05 04:33:41;;;;;;;48.37;23.53;;;;;;;2.67;100.00;98715.34;4956231;29;20523;-85
2022/01/05 04:36:07;;;;;;;45.90;22.03;;;;;;;1.76;100.00;98578.06;4954398;29;20197;-85
2022/01/05 04:38:33;;;;;;;44.07;21.47;;;;;;;-0.01;100.00;98239.31;4955664;29;20235;-85
2022/01/05 04:40:59;;;;;;;38.27;19.40;;;;;;;2.29;100.00;98661.38;4955169;29;20243;-85
2022/01/05 04:43:24;;;;;;;35.00;18.13;;;;;;;2.51;100.00;98726.03;4955034;29;20668;-86
2022/01/05 04:45:50;;;;;;;39.37;18.30;;;;;;;-0.25;100.00;98282.47;4938337;29;20576;-86
2022/01/05 04:48:15;;;;;;;34.83;16.77;;;;;;;0.10;100.00;98319.63;4953814;29;20192;-85
2022/01/05 04:50:40;;;;;;;34.97;17.43;;;;;;;1.20;100.00;98511.22;4956664;28;20180;-85
2022/01/05 04:53:06;;;;;;;34.17;16.90;;;;;;;2.42;100.00;98724.59;4958278;29;20195;-85
2022/01/05 04:55:31;;;;;;;34.20;17.47;;;;;;;2.01;100.00;98660.34;4960091;29;20172;-85
2022/01/05 04:57:57;;;;;;;35.37;18.70;;;;;;;2.53;100.00;98736.97;4959759;29;20205;-85
2022/01/05 05:00:22;;;;;;;41.47;19.77;;;;;;;2.05;100.00;98663.94;4962255;29;20194;-84
2022/01/05 05:02:48;;;;;;;111.70;34.57;;;;;;;2.48;100.00;98738.31;4949212;29;20297;-85
2022/01/05 05:05:14;;;;;;;51.70;24.07;;;;;;;0.84;100.00;98474.81;4960217;29;20185;-86
2022/01/05 05:07:40;;;;;;;43.93;21.70;;;;;;;-0.61;100.00;98251.03;4959579;29;20420;-86
2022/01/05 05:10:05;;;;;;;44.60;22.10;;;;;;;0.28;100.00;98383.03;4943129;29;20172;-84
2022/01/05 05:12:31;;;;;;;47.77;23.40;;;;;;;1.77;100.00;98628.84;4941979;29;20183;-85
2022/01/05 05:14:56;;;;;;;57.27;30.03;;;;;;;1.92;100.00;98669.78;4958663;29;20189;-85
2022/01/05 05:17:22;;;;;;;45.90;22.23;;;;;;;1.73;100.00;98612.78;4960158;29;20160;-85
2022/01/05 05:19:47;;;;;;;45.73;22.00;;;;;;;0.15;100.00;98339.06;4959522;29;20623;-85
2022/01/05 05:22:12;;;;;;;39.37;19.67;;;;;;;0.81;100.00;98463.75;4959218;29;20567;-86
2022/01/05 05:24:38;;;;;;;44.33;19.90;;;;;;;2.50;100.00;98725.94;4941432;29;20177;-86
2022/01/05 05:27:04;;;;;;;39.83;20.20;;;;;;;1.89;100.00;98637.13;4957953;29;20173;-85
2022/01/05 05:29:29;;;;;;;40.27;18.73;;;;;;;-0.10;100.00;98301.75;4958994;29;20180;-86
2022/01/05 05:31:55;;;;;;;42.37;19.17;;;;;;;0.92;100.00;98508.56;4958229;29;20456;-86
2022/01/05 05:34:20;;;;;;;44.30;23.27;;;;;;;-0.11;100.00;98332.34;4941417;29;20208;-86
2022/01/05 05:36:46;;;;;;;41.67;20.23;;;;;;;2.34;100.00;98752.41;4959743;29;20161;-86
2022/01/05 05:39:12;;;;;;;41.93;20.33;;;;;;;-0.80;100.00;98243.09;4958725;29;20259;-86
2022/01/05 05:41:39;;;;;;;73.20;34.93;;;;;;;0.99;100.00;98524.78;4963917;29;20231;-85
2022/01/05 05:44:05;;;;;;;213.67;82.30;;;;;;;0.92;100.00;98523.50;4970298;29;20400;-85
2022/01/05 05:46:30;;;;;;;196.13;74.87;;;;;;;2.30;100.00;98764.59;4960909;29;20792;-85
2022/01/05 05:48:56;;;;;;;130.63;53.33;;;;;;;0.31;100.00;98460.38;4957406;29;20192;-86
2022/01/05 05:51:21;;;;;;;133.77;54.17;;;;;;;1.72;100.00;98688.41;4960225;29;20649;-86
2022/01/05 05:53:47;;;;;;;117.13;52.57;;;;;;;1.31;100.00;98634.94;4959553;29;20188;-86
2022/01/05 05:56:12;;;;;;;158.27;67.20;;;;;;;1.38;100.00;98674.47;4957325;29;20602;-86
2022/01/05 05:58:37;;;;;;;195.33;87.47;;;;;;;0.66;100.00;98537.47;4957194;29;20227;-86
2022/01/05 06:01:03;;;;;;;233.37;105.50;;;;;;;2.20;100.00;98784.72;4957917;28;20172;-86
2022/01/05 06:03:29;;;;;;;224.60;105.10;;;;;;;0.30;100.00;98453.69;4959802;29;20165;-85
2022/01/05 06:05:54;;;;;;;195.47;91.40;;;;;;;-0.12;100.00;98395.28;4957632;29;20177;-85
2022/01/05 06:08:19;;;;;;;180.97;83.20;;;;;;;0.93;100.00;98592.50;4942457;29;20705;-87
2022/01/05 06:10:45;;;;;;;253.43;109.80;;;;;;;0.74;100.00;98577.06;4943800;29;20216;-84
2022/01/05 06:13:10;;;;;;;149.70;66.53;;;;;;;0.31;100.00;98478.69;4963455;29;20219;-85
2022/01/05 06:15:36;;;;;;;115.73;50.53;;;;;;;0.66;100.00;98547.44;4945712;29;20231;-85
2022/01/05 06:18:01;;;;;;;89.50;39.63;;;;;;;2.26;100.00;98785.13;4943418;29;20200;-85
2022/01/05 06:20:27;;;;;;;75.00;32.27;;;;;;;-2.41;100.00;98012.63;4944736;29;20647;-86
2022/01/05 06:22:53;;;;;;;61.80;30.73;;;;;;;1.07;100.00;98543.59;4945514;29;20208;-85
2022/01/05 06:25:20;;;;;;;64.90;30.47;;;;;;;-0.55;100.00;98300.28;4960502;29;20168;-86
2022/01/05 06:27:45;;;;;;;67.50;31.43;;;;;;;0.53;100.00;98474.38;4964165;29;20169;-86
2022/01/05 06:30:12;;;;;;;56.30;27.83;;;;;;;1.76;100.00;98702.81;4959115;29;20448;-86
2022/01/05 06:32:43;;;;;;;76.73;33.17;;;;;;;-0.38;100.00;98350.38;4944431;29;20676;-87
2022/01/05 06:35:09;;;;;;;96.63;42.83;;;;;;;0.30;100.00;98434.63;4946262;29;20498;-85
2022/01/05 06:37:35;;;;;;;127.30;55.57;;;;;;;0.83;100.00;98467.22;4962965;29;20412;-86
2022/01/05 06:40:00;;;;;;;130.67;57.07;;;;;;;-0.60;100.00;98129.38;4944258;29;20420;-87
2022/01/05 06:42:26;;;;;;;193.57;84.33;;;;;;;3.21;100.00;98735.44;4958866;28;20598;-91
2022/01/05 06:44:52;;;;;;;89.80;39.80;;;;;;;2.99;98.24;98705.75;4943064;29;20200;-86
2022/01/05 06:47:17;;;;;;;76.27;35.23;;;;;;;3.77;97.33;98819.78;4959451;29;20235;-86
2022/01/05 06:49:44;;;;;;;67.70;33.80;;;;;;;2.87;98.92;98733.34;4961590;29;20212;-85
2022/01/05 06:52:11;;;;;;;45.20;22.83;;;;;;;0.44;100.00;98326.91;4946289;29;20632;-86
2022/01/05 06:54:38;;;;;;;56.17;26.17;;;;;;;-0.90;100.00;98126.47;4961218;29;20416;-85
2022/01/05 06:57:04;;;;;;;56.00;27.87;;;;;;;0.24;100.00;98322.25;4957632;29;20416;-86
2022/01/05 06:59:29;;;;;;;58.93;27.57;;;;;;;-0.45;100.00;98226.44;4945438;29;20475;-85
2022/01/05 07:01:55;;;;;;;83.60;43.00;;;;;;;2.05;100.00;98601.53;4943843;29;20181;-86
2022/01/05 07:04:20;;;;;;;86.43;41.97;;;;;;;3.40;100.00;98774.16;4957291;29;20226;-86
2022/01/05 07:06:45;;;;;;;64.57;30.23;;;;;;;1.71;99.16;98448.84;4939604;29;20689;-86
2022/01/05 07:09:12;;;;;;;50.17;23.87;;;;;;;4.19;95.05;98728.81;4955546;29;20190;-86
2022/01/05 07:11:38;;;;;;;61.00;29.40;;;;;;;4.13;80.18;98290.19;4924745;29;20584;-86
2022/01/05 07:14:27;;;;;;;43.43;20.77;;;;;;;7.62;70.67;98741.47;4955633;28;20439;-86
2022/01/05 07:16:52;;;;;;;43.63;23.20;;;;;;;6.85;64.02;98344.63;4899567;29;20511;-86
2022/01/05 07:19:20;;;;;;;43.20;21.63;;;;;;;10.33;59.89;98824.78;4901443;29;20998;-84
2022/01/05 07:21:46;;;;;;;49.77;24.33;;;;;;;8.58;59.45;98473.16;4899516;29;20262;-85
2022/01/05 07:24:16;;;;;;;43.50;22.87;;;;;;;10.23;58.54;98757.81;4884815;29;20423;-86
2022/01/05 07:26:41;;;;;;;51.27;26.80;;;;;;;10.60;57.16;98818.97;4886100;29;20195;-85
2022/01/05 07:29:07;;;;;;;45.73;23.33;;;;;;;6.33;66.84;98455.56;4901731;29;21038;-85
2022/01/05 07:31:33;;;;;;;48.10;23.17;;;;;;;6.09;78.05;98757.56;4901357;29;20228;-86
2022/01/05 07:33:59;;;;;;;56.13;25.80;;;;;;;2.01;82.83;98181.22;4903988;29;20262;-85
2022/01/05 07:36:25;;;;;;;47.00;23.63;;;;;;;4.58;87.95;98701.00;4899775;29;20467;-85
2022/01/05 07:38:52;;;;;;;46.60;22.63;;;;;;;3.06;91.14;98524.47;4913597;29;20250;-84
2022/01/05 07:41:18;;;;;;;57.47;26.33;;;;;;;1.81;93.41;98341.38;4895601;29;20490;-85
2022/01/05 07:43:43;;;;;;;57.97;28.20;;;;;;;5.20;93.70;98839.84;4913440;29;20423;-84
2022/01/05 07:46:10;;;;;;;44.80;25.07;;;;;;;5.13;93.57;98840.31;4907540;29;20659;-86
2022/01/05 07:48:35;;;;;;;51.37;27.90;;;;;;;3.49;93.00;98528.66;4949190;29;20476;-87
2022/01/05 07:51:01;;;;;;;49.00;24.57;;;;;;;4.67;95.30;98781.69;4958857;29;20270;-87
2022/01/05 07:53:26;;;;;;;40.47;21.87;;;;;;;2.07;94.61;98281.38;4941795;29;20236;-87
2022/01/05 07:55:54;;;;;;;72.30;35.57;;;;;;;3.74;92.09;98493.34;4941418;29;20191;-87
2022/01/05 07:58:21;;;;;;;82.67;48.00;;;;;;;3.78;90.81;98410.19;4957615;29;20310;-87
2022/01/05 08:00:46;;;;;;;59.97;30.93;;;;;;;4.74;90.07;98522.19;4959674;29;20460;-86
2022/01/05 08:03:12;;;;;;;69.23;34.63;;;;;;;6.23;88.06;98716.41;4960037;29;20960;-86
2022/01/05 08:05:40;;;;;;;105.70;44.57;;;;;;;6.41;88.29;98757.53;4958115;29;20242;-86
2022/01/05 08:08:06;;;;;;;62.80;31.57;;;;;;;5.97;89.05;98739.34;4959532;29;20638;-86
2022/01/05 08:10:31;;;;;;;57.33;29.90;;;;;;;5.40;88.49;98577.44;4962857;29;20411;-86
2022/01/05 08:12:57;;;;;;;53.57;28.37;;;;;;;4.39;88.50;98396.72;4944947;29;20287;-86
2022/01/05 08:15:24;;;;;;;53.90;27.70;;;;;;;6.10;90.01;98722.47;4958206;29;20175;-86
2022/01/05 08:17:50;;;;;;;76.67;37.70;;;;;;;4.73;90.73;98495.38;4942817;29;20208;-86
2022/01/05 08:20:16;;;;;;;64.77;29.67;;;;;;;5.88;91.11;98707.09;4941729;29;20408;-87
2022/01/05 08:22:43;;;;;;;54.33;29.03;;;;;;;4.17;90.87;98405.63;4962010;29;20183;-87
2022/01/05 08:25:11;;;;;;;102.60;54.33;;;;;;;5.35;88.15;98481.88;4951151;29;20183;-86
2022/01/05 08:27:46;;;;;;;77.37;43.70;;;;;;;6.83;84.74;98607.81;4968575;29;20419;-85
2022/01/05 08:30:22;;;;;;;51.57;28.17;;;;;;;7.53;82.31;98684.78;4955678;29;20451;-85
2022/01/05 08:32:51;;;;;;;75.67;40.73;;;;;;;7.84;81.16;98690.38;4971798;29;20399;-86
2022/01/05 08:35:18;;;;;;;46.67;26.50;;;;;;;7.41;82.57;98633.91;4951551;29;20416;-87
2022/01/05 08:37:46;;;;;;;53.23;28.97;;;;;;;5.14;83.41;98291.81;4965633;29;20312;-87
2022/01/05 08:40:14;;;;;;;74.10;40.27;;;;;;;6.24;83.39;98477.75;4968361;29;20416;-86
2022/01/05 08:42:40;;;;;;;105.37;51.70;;;;;;;5.71;80.10;98226.66;4949303;29;20476;-87
2022/01/05 08:45:07;;;;;;;75.10;38.97;;;;;;;5.51;76.89;98118.69;4948597;29;20964;-86
2022/01/05 08:47:33;;;;;;;50.03;26.97;;;;;;;9.62;77.69;98817.03;4968068;29;20165;-88
2022/01/05 08:49:58;;;;;;;33.43;17.57;;;;;;;5.56;75.71;98087.97;4955250;29;20191;-86
2022/01/05 08:52:24;;;;;;;44.33;23.70;;;;;;;9.37;73.23;98644.34;4970486;29;20180;-88
2022/01/05 08:54:50;;;;;;;39.50;20.87;;;;;;;10.73;70.25;98784.84;4971385;29;20263;-88
2022/01/05 08:57:21;;;;;;;30.53;17.03;;;;;;;10.92;68.38;98787.16;4970428;29;20165;-87
2022/01/05 08:59:47;;;;;;;29.03;16.83;;;;;;;8.69;68.78;98444.13;4939393;29;20199;-87
2022/01/05 09:02:15;;;;;;;44.87;23.27;;;;;;;7.47;68.49;98217.06;4968912;29;20179;-87
2022/01/05 09:04:41;;;;;;;33.37;18.67;;;;;;;7.35;69.07;98172.97;4969330;29;20173;-87
2022/01/05 09:07:07;;;;;;;29.63;17.50;;;;;;;7.45;67.89;98180.03;4967622;29;20245;-87
2022/01/05 09:09:32;;;;;;;36.33;21.83;;;;;;;7.45;69.05;98198.53;4965368;29;20208;-89
2022/01/05 09:11:58;;;;;;;33.30;20.20;;;;;;;11.02;68.66;98794.22;4934867;29;20184;-91
2022/01/05 09:14:23;;;;;;;34.80;20.33;;;;;;;10.12;68.66;98566.03;4965876;29;20179;-87
2022/01/05 09:16:49;;;;;;;48.37;26.97;;;;;;;9.04;66.56;98347.78;4965740;29;20173;-86
2022/01/05 09:19:14;;;;;;;51.50;25.43;;;;;;;9.98;65.80;98474.56;4948135;29;20192;-87
2022/01/05 09:21:40;;;;;;;60.97;30.97;;;;;;;10.50;64.83;98498.13;4964799;29;20648;-87
2022/01/05 09:24:06;;;;;;;39.37;22.17;;;;;;;8.57;67.22;98264.63;4966960;29;20165;-88
2022/01/05 09:26:32;;;;;;;38.50;23.10;;;;;;;8.39;65.18;98128.72;4976655;28;20193;-86
2022/01/05 09:28:57;;;;;;;33.70;19.83;;;;;;;10.58;62.47;98414.81;4949923;29;20177;-85
2022/01/05 09:31:23;;;;;;;36.83;21.17;;;;;;;11.32;61.63;98518.13;4944228;29;20189;-87
2022/01/05 09:33:48;;;;;;;38.80;21.97;;;;;;;11.55;61.32;98526.34;4942889;29;20260;-84
2022/01/05 09:36:18;;;;;;;41.07;24.20;;;;;;;12.72;60.63;98739.09;4949071;29;20193;-85
2022/01/05 09:44:03;;;;;;;39.07;24.03;;;;;;;11.82;58.82;98477.22;4953017;29;20747;-87
2022/01/05 09:46:55;;;;;;;40.87;23.87;;;;;;;13.69;57.09;98720.13;4950714;29;20276;-85
2022/01/05 09:49:33;;;;;;;39.97;24.50;;;;;;;14.06;55.71;98728.50;4947156;29;20172;-84
2022/01/05 09:52:04;;;;;;;46.80;26.67;;;;;;;14.08;55.49;98726.84;4931037;29;20177;-88
2022/01/05 09:54:30;;;;;;;42.00;25.40;;;;;;;12.13;58.38;98567.59;4949693;29;20170;-85
2022/01/05 09:56:57;;;;;;;55.57;31.93;;;;;;;13.60;58.14;98719.09;4953048;29;20225;-86
2022/01/05 09:59:24;;;;;;;63.73;34.30;;;;;;;13.11;56.40;98581.66;4930164;29;20201;-88
2022/01/05 10:01:49;;;;;;;45.17;25.57;;;;;;;12.84;55.67;98482.84;4948288;29;20173;-87
2022/01/05 10:04:16;;;;;;;40.30;24.13;;;;;;;12.12;55.35;98317.22;4930018;29;20557;-88
2022/01/05 10:06:41;;;;;;;50.17;28.23;;;;;;;13.83;54.65;98600.00;4930052;29;20174;-87
2022/01/05 10:09:08;;;;;;;40.60;21.90;;;;;;;13.51;53.97;98523.09;4936688;29;20201;-87
2022/01/05 10:11:34;;;;;;;34.50;21.30;;;;;;;11.04;54.61;98161.16;4938899;29;20161;-87
2022/01/05 10:14:00;;;;;;;31.27;19.90;;;;;;;12.93;53.71;98417.00;4940788;29;20368;-87
2022/01/05 10:16:26;;;;;;;35.77;21.27;;;;;;;11.44;53.19;98095.28;4937471;29;20224;-86
2022/01/05 10:18:52;;;;;;;36.43;21.07;;;;;;;12.36;52.81;98211.13;4954695;29;20240;-88
2022/01/05 10:21:20;;;;;;;47.13;24.50;;;;;;;11.64;52.36;98103.25;4939318;29;20202;-87
2022/01/05 10:23:51;;;;;;;38.73;22.20;;;;;;;12.12;51.70;98131.19;4938883;29;20200;-86
2022/01/05 10:26:43;;;;;;;30.97;17.33;;;;;;;15.14;51.42;98676.81;4945410;29;20638;-80
2022/01/05 10:29:18;;;;;;;31.17;18.47;;;;;;;15.21;51.35;98676.09;4884067;29;20199;-81
2022/01/05 10:31:44;;;;;;;34.40;20.50;;;;;;;14.83;51.42;98593.16;4881956;29;20315;-79
2022/01/05 10:34:21;;;;;;;39.77;21.30;;;;;;;15.07;51.88;98675.03;4883393;29;20198;-79
2022/01/05 10:36:57;;;;;;;39.03;22.90;;;;;;;15.07;51.79;98668.25;4883806;29;20175;-83
2022/01/05 10:39:29;;;;;;;50.50;27.70;;;;;;;15.33;51.58;98666.03;4884231;29;20247;-81
2022/01/05 10:41:55;;;;;;;62.07;34.57;;;;;;;15.36;50.94;98668.63;4885173;29;20667;-80
2022/01/05 10:44:24;;;;;;;48.87;28.40;;;;;;;14.97;51.32;98657.91;4879630;29;20223;-79
2022/01/05 10:46:53;;;;;;;44.27;23.80;;;;;;;14.87;50.65;98610.16;4865183;29;20660;-80
2022/01/05 10:49:25;;;;;;;40.60;23.83;;;;;;;15.17;51.09;98651.38;4879174;29;20175;-79
2022/01/05 10:51:51;;;;;;;37.27;21.63;;;;;;;15.26;49.48;98614.13;4881438;29;20171;-79
2022/01/05 10:54:24;;;;;;;38.13;22.17;;;;;;;14.34;50.46;98515.19;4880449;29;20186;-79
2022/01/05 10:56:49;;;;;;;49.13;28.37;;;;;;;13.23;50.60;98304.88;4880184;29;20176;-79
2022/01/05 10:59:25;;;;;;;43.23;25.83;;;;;;;13.72;50.11;98379.34;4881038;29;20223;-79
2022/01/05 11:01:51;;;;;;;45.03;27.00;;;;;;;13.63;50.46;98374.97;4881994;29;20175;-79
2022/01/05 11:04:23;;;;;;;45.43;23.97;;;;;;;15.40;50.13;98644.88;4883972;29;20276;-78
2022/01/05 11:07:03;;;;;;;35.40;19.27;;;;;;;15.62;49.03;98643.47;4936414;29;20666;-79
2022/01/05 11:09:32;;;;;;;37.60;21.73;;;;;;;14.77;49.50;98477.56;4941663;29;20186;-79
2022/01/05 11:11:59;;;;;;;38.57;23.00;;;;;;;15.65;48.80;98621.41;4926409;29;20205;-79
2022/01/05 11:14:32;;;;;;;41.07;22.10;;;;;;;15.69;48.83;98642.69;4941989;29;20178;-78
2022/01/05 11:17:00;;;;;;;40.63;22.13;;;;;;;15.76;48.73;98634.28;4945517;29;20172;-79
2022/01/05 11:19:29;;;;;;;40.80;22.17;;;;;;;14.48;48.30;98386.34;4950334;29;20613;-78
2022/01/05 11:22:08;;;;;;;31.37;18.63;;;;;;;14.48;47.77;98412.66;4967680;29;20157;-78
2022/01/05 11:24:40;;;;;;;30.03;16.40;;;;;;;14.66;48.59;98540.28;4965654;29;20179;-79